sensor_id;sensor_type;location;lat;lon;timestamp;P1;durP1;ratioP1;P2;durP2;ratioP2
71091;SDS011;58751;50.708;7.134;2022-12-13T00:01:58;23.98;;;13.25;;
71091;SDS011;58751;50.708;7.134;2022-12-13T00:04:23;23.03;;;12.30;;
71091;SDS011;58751;50.708;7.134;2022-12-13T00:06:49;26.00;;;14.10;;
71091;SDS011;58751;50.708;7.134;2022-12-13T00:09:15;22.20;;;12.97;;
71091;SDS011;58751;50.708;7.134;2022-12-13T00:11:40;24.70;;;14.90;;
71091;SDS011;58751;50.708;7.134;2022-12-13T00:14:05;24.27;;;13.30;;
71091;SDS011;58751;50.708;7.134;2022-12-13T00:16:32;20.87;;;13.93;;
71091;SDS011;58751;50.708;7.134;2022-12-13T00:18:57;26.40;;;13.93;;
71091;SDS011;58751;50.708;7.134;2022-12-13T00:21:24;23.10;;;14.15;;
71091;SDS011;58751;50.708;7.134;2022-12-13T00:23:50;27.83;;;15.45;;
71091;SDS011;58751;50.708;7.134;2022-12-13T00:26:15;27.50;;;14.40;;
71091;SDS011;58751;50.708;7.134;2022-12-13T00:28:41;37.30;;;16.40;;
71091;SDS011;58751;50.708;7.134;2022-12-13T00:31:07;24.60;;;14.87;;
71091;SDS011;58751;50.708;7.134;2022-12-13T00:33:33;24.93;;;15.00;;
71091;SDS011;58751;50.708;7.134;2022-12-13T00:36:02;29.60;;;17.17;;
71091;SDS011;58751;50.708;7.134;2022-12-13T00:38:27;24.73;;;14.50;;
71091;SDS011;58751;50.708;7.134;2022-12-13T00:40:53;30.20;;;14.27;;
71091;SDS011;58751;50.708;7.134;2022-12-13T00:43:18;28.40;;;14.80;;
71091;SDS011;58751;50.708;7.134;2022-12-13T00:45:43;26.10;;;14.63;;
71091;SDS011;58751;50.708;7.134;2022-12-13T00:48:08;28.97;;;14.33;;
71091;SDS011;58751;50.708;7.134;2022-12-13T00:50:35;33.00;;;16.43;;
71091;SDS011;58751;50.708;7.134;2022-12-13T00:53:01;33.90;;;15.90;;
71091;SDS011;58751;50.708;7.134;2022-12-13T00:55:26;27.27;;;14.63;;
71091;SDS011;58751;50.708;7.134;2022-12-13T00:57:52;33.10;;;16.53;;
71091;SDS011;58751;50.708;7.134;2022-12-13T01:00:17;29.07;;;15.53;;
71091;SDS011;58751;50.708;7.134;2022-12-13T01:02:42;30.20;;;15.83;;
71091;SDS011;58751;50.708;7.134;2022-12-13T01:05:07;31.53;;;16.23;;
71091;SDS011;58751;50.708;7.134;2022-12-13T01:07:34;33.23;;;15.17;;
71091;SDS011;58751;50.708;7.134;2022-12-13T01:10:00;26.10;;;14.77;;
71091;SDS011;58751;50.708;7.134;2022-12-13T01:12:25;29.63;;;15.17;;
71091;SDS011;58751;50.708;7.134;2022-12-13T01:14:50;32.60;;;15.80;;
71091;SDS011;58751;50.708;7.134;2022-12-13T01:17:15;28.87;;;16.70;;
71091;SDS011;58751;50.708;7.134;2022-12-13T01:19:40;26.77;;;14.97;;
71091;SDS011;58751;50.708;7.134;2022-12-13T01:22:05;26.97;;;14.73;;
71091;SDS011;58751;50.708;7.134;2022-12-13T01:24:32;31.00;;;17.73;;
71091;SDS011;58751;50.708;7.134;2022-12-13T01:26:57;27.70;;;15.68;;
71091;SDS011;58751;50.708;7.134;2022-12-13T01:29:23;23.97;;;14.03;;
71091;SDS011;58751;50.708;7.134;2022-12-13T01:31:48;22.80;;;13.20;;
71091;SDS011;58751;50.708;7.134;2022-12-13T01:34:14;26.47;;;15.87;;
71091;SDS011;58751;50.708;7.134;2022-12-13T01:36:40;26.45;;;15.70;;
71091;SDS011;58751;50.708;7.134;2022-12-13T01:39:06;33.80;;;15.13;;
71091;SDS011;58751;50.708;7.134;2022-12-13T01:41:33;30.53;;;16.13;;
71091;SDS011;58751;50.708;7.134;2022-12-13T01:43:59;27.30;;;15.55;;
71091;SDS011;58751;50.708;7.134;2022-12-13T01:46:24;29.00;;;14.65;;
71091;SDS011;58751;50.708;7.134;2022-12-13T01:48:51;30.00;;;16.40;;
71091;SDS011;58751;50.708;7.134;2022-12-13T01:51:18;33.88;;;16.95;;
71091;SDS011;58751;50.708;7.134;2022-12-13T01:53:45;27.33;;;12.85;;
71091;SDS011;58751;50.708;7.134;2022-12-13T01:56:13;31.73;;;16.50;;
71091;SDS011;58751;50.708;7.134;2022-12-13T01:58:41;31.13;;;16.05;;
71091;SDS011;58751;50.708;7.134;2022-12-13T02:01:06;26.52;;;15.32;;
71091;SDS011;58751;50.708;7.134;2022-12-13T02:03:31;33.70;;;17.40;;
71091;SDS011;58751;50.708;7.134;2022-12-13T02:05:58;31.77;;;17.03;;
71091;SDS011;58751;50.708;7.134;2022-12-13T02:08:24;32.13;;;15.93;;
71091;SDS011;58751;50.708;7.134;2022-12-13T02:10:50;31.77;;;18.20;;
71091;SDS011;58751;50.708;7.134;2022-12-13T02:13:15;29.43;;;17.63;;
71091;SDS011;58751;50.708;7.134;2022-12-13T02:15:43;31.33;;;17.43;;
71091;SDS011;58751;50.708;7.134;2022-12-13T02:18:14;26.45;;;14.88;;
71091;SDS011;58751;50.708;7.134;2022-12-13T02:20:53;26.98;;;16.42;;
71091;SDS011;58751;50.708;7.134;2022-12-13T02:23:38;27.90;;;14.25;;
71091;SDS011;58751;50.708;7.134;2022-12-13T02:26:19;25.08;;;15.48;;
71091;SDS011;58751;50.708;7.134;2022-12-13T02:28:52;29.70;;;15.13;;
71091;SDS011;58751;50.708;7.134;2022-12-13T02:31:27;30.40;;;17.58;;
71091;SDS011;58751;50.708;7.134;2022-12-13T02:33:54;27.88;;;17.00;;
71091;SDS011;58751;50.708;7.134;2022-12-13T02:36:22;28.45;;;17.17;;
71091;SDS011;58751;50.708;7.134;2022-12-13T02:38:53;37.85;;;18.20;;
71091;SDS011;58751;50.708;7.134;2022-12-13T02:41:21;30.73;;;16.38;;
71091;SDS011;58751;50.708;7.134;2022-12-13T02:43:49;31.48;;;16.77;;
71091;SDS011;58751;50.708;7.134;2022-12-13T02:46:17;32.00;;;16.02;;
71091;SDS011;58751;50.708;7.134;2022-12-13T02:48:45;39.92;;;18.67;;
71091;SDS011;58751;50.708;7.134;2022-12-13T02:51:13;32.50;;;16.75;;
71091;SDS011;58751;50.708;7.134;2022-12-13T02:53:39;34.30;;;16.70;;
71091;SDS011;58751;50.708;7.134;2022-12-13T02:56:05;32.83;;;16.20;;
71091;SDS011;58751;50.708;7.134;2022-12-13T02:58:31;38.57;;;18.63;;
71091;SDS011;58751;50.708;7.134;2022-12-13T03:01:02;31.70;;;16.23;;
71091;SDS011;58751;50.708;7.134;2022-12-13T03:03:32;30.25;;;17.40;;
71091;SDS011;58751;50.708;7.134;2022-12-13T03:06:02;33.60;;;17.90;;
71091;SDS011;58751;50.708;7.134;2022-12-13T03:08:32;33.53;;;18.33;;
71091;SDS011;58751;50.708;7.134;2022-12-13T03:11:02;37.35;;;18.27;;
71091;SDS011;58751;50.708;7.134;2022-12-13T03:13:28;32.00;;;17.25;;
71091;SDS011;58751;50.708;7.134;2022-12-13T03:15:56;30.20;;;18.30;;
71091;SDS011;58751;50.708;7.134;2022-12-13T03:18:22;30.58;;;16.17;;
71091;SDS011;58751;50.708;7.134;2022-12-13T03:20:49;38.50;;;16.90;;
71091;SDS011;58751;50.708;7.134;2022-12-13T03:23:17;38.88;;;17.80;;
71091;SDS011;58751;50.708;7.134;2022-12-13T03:25:42;31.48;;;16.17;;
71091;SDS011;58751;50.708;7.134;2022-12-13T03:28:08;29.37;;;16.00;;
71091;SDS011;58751;50.708;7.134;2022-12-13T03:30:33;36.50;;;18.97;;
71091;SDS011;58751;50.708;7.134;2022-12-13T03:32:58;31.60;;;18.33;;
71091;SDS011;58751;50.708;7.134;2022-12-13T03:35:24;31.60;;;17.70;;
71091;SDS011;58751;50.708;7.134;2022-12-13T03:37:49;33.10;;;17.17;;
71091;SDS011;58751;50.708;7.134;2022-12-13T03:40:16;34.20;;;20.83;;
71091;SDS011;58751;50.708;7.134;2022-12-13T03:42:41;38.83;;;18.73;;
71091;SDS011;58751;50.708;7.134;2022-12-13T03:45:07;39.83;;;16.70;;
71091;SDS011;58751;50.708;7.134;2022-12-13T03:47:32;38.30;;;19.27;;
71091;SDS011;58751;50.708;7.134;2022-12-13T03:49:57;35.27;;;18.53;;
71091;SDS011;58751;50.708;7.134;2022-12-13T03:52:23;31.87;;;17.70;;
71091;SDS011;58751;50.708;7.134;2022-12-13T03:54:48;28.93;;;16.23;;
71091;SDS011;58751;50.708;7.134;2022-12-13T03:57:15;39.17;;;19.13;;
71091;SDS011;58751;50.708;7.134;2022-12-13T03:59:40;32.88;;;16.85;;
71091;SDS011;58751;50.708;7.134;2022-12-13T04:02:05;41.43;;;21.00;;
71091;SDS011;58751;50.708;7.134;2022-12-13T04:04:30;40.80;;;20.67;;
71091;SDS011;58751;50.708;7.134;2022-12-13T04:06:55;36.20;;;17.73;;
71091;SDS011;58751;50.708;7.134;2022-12-13T04:09:21;33.67;;;16.50;;
71091;SDS011;58751;50.708;7.134;2022-12-13T04:11:46;32.13;;;17.63;;
71091;SDS011;58751;50.708;7.134;2022-12-13T04:14:12;39.37;;;17.37;;
71091;SDS011;58751;50.708;7.134;2022-12-13T04:16:38;39.72;;;17.80;;
71091;SDS011;58751;50.708;7.134;2022-12-13T04:19:03;31.83;;;15.87;;
71091;SDS011;58751;50.708;7.134;2022-12-13T04:21:28;30.27;;;16.00;;
71091;SDS011;58751;50.708;7.134;2022-12-13T04:23:53;28.83;;;15.50;;
71091;SDS011;58751;50.708;7.134;2022-12-13T04:26:18;24.70;;;15.77;;
71091;SDS011;58751;50.708;7.134;2022-12-13T04:28:44;32.90;;;16.50;;
71091;SDS011;58751;50.708;7.134;2022-12-13T04:31:10;37.63;;;16.83;;
71091;SDS011;58751;50.708;7.134;2022-12-13T04:33:36;29.15;;;15.85;;
71091;SDS011;58751;50.708;7.134;2022-12-13T04:36:01;32.53;;;16.03;;
71091;SDS011;58751;50.708;7.134;2022-12-13T04:38:26;32.87;;;16.43;;
71091;SDS011;58751;50.708;7.134;2022-12-13T04:40:51;33.17;;;15.80;;
71091;SDS011;58751;50.708;7.134;2022-12-13T04:43:16;36.67;;;17.03;;
71091;SDS011;58751;50.708;7.134;2022-12-13T04:45:42;29.77;;;16.83;;
71091;SDS011;58751;50.708;7.134;2022-12-13T04:48:08;32.00;;;15.10;;
71091;SDS011;58751;50.708;7.134;2022-12-13T04:50:33;27.10;;;14.70;;
71091;SDS011;58751;50.708;7.134;2022-12-13T04:52:59;29.97;;;14.67;;
71091;SDS011;58751;50.708;7.134;2022-12-13T04:55:24;30.17;;;17.23;;
71091;SDS011;58751;50.708;7.134;2022-12-13T04:57:49;27.80;;;15.77;;
71091;SDS011;58751;50.708;7.134;2022-12-13T05:00:14;34.13;;;15.67;;
71091;SDS011;58751;50.708;7.134;2022-12-13T05:02:40;27.77;;;14.03;;
71091;SDS011;58751;50.708;7.134;2022-12-13T05:05:07;29.87;;;14.53;;
71091;SDS011;58751;50.708;7.134;2022-12-13T05:07:32;36.92;;;17.42;;
71091;SDS011;58751;50.708;7.134;2022-12-13T05:09:57;31.73;;;15.17;;
71091;SDS011;58751;50.708;7.134;2022-12-13T05:12:23;38.77;;;16.90;;
71091;SDS011;58751;50.708;7.134;2022-12-13T05:14:48;31.17;;;17.37;;
71091;SDS011;58751;50.708;7.134;2022-12-13T05:17:13;30.87;;;16.80;;
71091;SDS011;58751;50.708;7.134;2022-12-13T05:19:38;33.03;;;16.03;;
71091;SDS011;58751;50.708;7.134;2022-12-13T05:22:05;29.30;;;15.63;;
71091;SDS011;58751;50.708;7.134;2022-12-13T05:24:30;34.15;;;15.80;;
71091;SDS011;58751;50.708;7.134;2022-12-13T05:26:56;32.33;;;17.97;;
71091;SDS011;58751;50.708;7.134;2022-12-13T05:29:21;29.37;;;15.00;;
71091;SDS011;58751;50.708;7.134;2022-12-13T05:31:46;34.67;;;16.77;;
71091;SDS011;58751;50.708;7.134;2022-12-13T05:34:11;29.47;;;15.13;;
71091;SDS011;58751;50.708;7.134;2022-12-13T05:36:36;28.60;;;16.17;;
71091;SDS011;58751;50.708;7.134;2022-12-13T05:39:03;32.00;;;14.93;;
71091;SDS011;58751;50.708;7.134;2022-12-13T05:41:30;26.17;;;15.18;;
71091;SDS011;58751;50.708;7.134;2022-12-13T05:43:56;33.15;;;16.63;;
71091;SDS011;58751;50.708;7.134;2022-12-13T05:46:21;30.10;;;15.17;;
71091;SDS011;58751;50.708;7.134;2022-12-13T05:48:46;31.57;;;16.73;;
71091;SDS011;58751;50.708;7.134;2022-12-13T05:51:11;28.90;;;16.00;;
71091;SDS011;58751;50.708;7.134;2022-12-13T05:53:37;31.93;;;15.73;;
71091;SDS011;58751;50.708;7.134;2022-12-13T05:56:03;26.57;;;13.23;;
71091;SDS011;58751;50.708;7.134;2022-12-13T05:58:29;33.72;;;17.77;;
71091;SDS011;58751;50.708;7.134;2022-12-13T06:00:54;28.43;;;13.67;;
71091;SDS011;58751;50.708;7.134;2022-12-13T06:03:19;30.50;;;15.70;;
71091;SDS011;58751;50.708;7.134;2022-12-13T06:05:44;36.43;;;18.13;;
71091;SDS011;58751;50.708;7.134;2022-12-13T06:08:10;31.70;;;14.80;;
71091;SDS011;58751;50.708;7.134;2022-12-13T06:10:35;28.73;;;15.00;;
71091;SDS011;58751;50.708;7.134;2022-12-13T06:13:02;35.00;;;16.67;;
71091;SDS011;58751;50.708;7.134;2022-12-13T06:15:27;28.58;;;15.30;;
71091;SDS011;58751;50.708;7.134;2022-12-13T06:17:52;31.87;;;16.63;;
71091;SDS011;58751;50.708;7.134;2022-12-13T06:20:17;28.27;;;15.77;;
71091;SDS011;58751;50.708;7.134;2022-12-13T06:22:42;30.87;;;15.60;;
71091;SDS011;58751;50.708;7.134;2022-12-13T06:25:08;29.30;;;15.67;;
71091;SDS011;58751;50.708;7.134;2022-12-13T06:27:33;28.20;;;14.20;;
71091;SDS011;58751;50.708;7.134;2022-12-13T06:29:59;29.70;;;14.33;;
71091;SDS011;58751;50.708;7.134;2022-12-13T06:32:25;29.05;;;12.82;;
71091;SDS011;58751;50.708;7.134;2022-12-13T06:34:50;29.00;;;13.93;;
71091;SDS011;58751;50.708;7.134;2022-12-13T06:37:15;28.37;;;15.37;;
71091;SDS011;58751;50.708;7.134;2022-12-13T06:39:40;28.73;;;14.60;;
71091;SDS011;58751;50.708;7.134;2022-12-13T06:42:06;27.70;;;14.03;;
71091;SDS011;58751;50.708;7.134;2022-12-13T06:44:32;28.15;;;15.43;;
71091;SDS011;58751;50.708;7.134;2022-12-13T06:46:59;25.87;;;12.97;;
71091;SDS011;58751;50.708;7.134;2022-12-13T06:49:24;27.58;;;14.43;;
71091;SDS011;58751;50.708;7.134;2022-12-13T06:51:49;31.90;;;14.77;;
71091;SDS011;58751;50.708;7.134;2022-12-13T06:54:14;29.93;;;14.10;;
71091;SDS011;58751;50.708;7.134;2022-12-13T06:56:39;28.10;;;14.30;;
71091;SDS011;58751;50.708;7.134;2022-12-13T06:59:05;25.37;;;14.80;;
71091;SDS011;58751;50.708;7.134;2022-12-13T07:01:30;30.23;;;15.70;;
71091;SDS011;58751;50.708;7.134;2022-12-13T07:03:56;28.97;;;16.17;;
71091;SDS011;58751;50.708;7.134;2022-12-13T07:06:22;34.17;;;15.30;;
71091;SDS011;58751;50.708;7.134;2022-12-13T07:08:49;30.80;;;16.63;;
71091;SDS011;58751;50.708;7.134;2022-12-13T07:11:15;23.42;;;14.48;;
71091;SDS011;58751;50.708;7.134;2022-12-13T07:13:40;24.33;;;14.15;;
71091;SDS011;58751;50.708;7.134;2022-12-13T07:16:06;34.20;;;15.70;;
71091;SDS011;58751;50.708;7.134;2022-12-13T07:18:31;34.40;;;16.70;;
71091;SDS011;58751;50.708;7.134;2022-12-13T07:20:58;27.77;;;15.27;;
71091;SDS011;58751;50.708;7.134;2022-12-13T07:23:23;31.73;;;15.02;;
71091;SDS011;58751;50.708;7.134;2022-12-13T07:25:51;27.73;;;16.20;;
71091;SDS011;58751;50.708;7.134;2022-12-13T07:28:16;31.80;;;13.55;;
71091;SDS011;58751;50.708;7.134;2022-12-13T07:30:41;29.60;;;15.20;;
71091;SDS011;58751;50.708;7.134;2022-12-13T07:33:07;28.30;;;14.90;;
71091;SDS011;58751;50.708;7.134;2022-12-13T07:35:32;33.53;;;15.70;;
71091;SDS011;58751;50.708;7.134;2022-12-13T07:37:59;24.13;;;15.30;;
71091;SDS011;58751;50.708;7.134;2022-12-13T07:40:24;29.42;;;14.32;;
71091;SDS011;58751;50.708;7.134;2022-12-13T07:42:50;30.77;;;16.27;;
71091;SDS011;58751;50.708;7.134;2022-12-13T07:45:15;27.63;;;16.13;;
71091;SDS011;58751;50.708;7.134;2022-12-13T07:47:40;24.83;;;15.27;;
71091;SDS011;58751;50.708;7.134;2022-12-13T07:50:05;32.30;;;15.90;;
71091;SDS011;58751;50.708;7.134;2022-12-13T07:52:31;30.33;;;14.97;;
71091;SDS011;58751;50.708;7.134;2022-12-13T07:54:57;26.20;;;14.50;;
71091;SDS011;58751;50.708;7.134;2022-12-13T07:57:22;28.80;;;16.10;;
71091;SDS011;58751;50.708;7.134;2022-12-13T07:59:48;27.10;;;14.93;;
71091;SDS011;58751;50.708;7.134;2022-12-13T08:02:13;35.30;;;15.53;;
71091;SDS011;58751;50.708;7.134;2022-12-13T08:04:38;33.30;;;16.20;;
71091;SDS011;58751;50.708;7.134;2022-12-13T08:07:05;27.70;;;15.17;;
71091;SDS011;58751;50.708;7.134;2022-12-13T08:09:30;28.60;;;16.27;;
71091;SDS011;58751;50.708;7.134;2022-12-13T08:11:56;26.53;;;14.10;;
71091;SDS011;58751;50.708;7.134;2022-12-13T08:14:22;35.25;;;14.57;;
71091;SDS011;58751;50.708;7.134;2022-12-13T08:16:47;25.67;;;15.60;;
71091;SDS011;58751;50.708;7.134;2022-12-13T08:19:12;28.63;;;15.30;;
71091;SDS011;58751;50.708;7.134;2022-12-13T08:21:38;25.33;;;15.23;;
71091;SDS011;58751;50.708;7.134;2022-12-13T08:24:03;29.10;;;14.35;;
71091;SDS011;58751;50.708;7.134;2022-12-13T08:26:28;29.40;;;15.23;;
71091;SDS011;58751;50.708;7.134;2022-12-13T08:28:55;26.20;;;13.73;;
71091;SDS011;58751;50.708;7.134;2022-12-13T08:31:20;27.33;;;14.82;;
71091;SDS011;58751;50.708;7.134;2022-12-13T08:33:46;33.13;;;17.00;;
71091;SDS011;58751;50.708;7.134;2022-12-13T08:36:12;33.23;;;18.53;;
71091;SDS011;58751;50.708;7.134;2022-12-13T08:38:37;34.63;;;18.40;;
71091;SDS011;58751;50.708;7.134;2022-12-13T08:41:03;21.80;;;13.37;;
71091;SDS011;58751;50.708;7.134;2022-12-13T08:43:28;30.43;;;16.93;;
71091;SDS011;58751;50.708;7.134;2022-12-13T08:45:55;32.67;;;17.17;;
71091;SDS011;58751;50.708;7.134;2022-12-13T08:48:20;27.55;;;17.10;;
71091;SDS011;58751;50.708;7.134;2022-12-13T08:50:45;27.47;;;17.07;;
71091;SDS011;58751;50.708;7.134;2022-12-13T08:53:10;29.27;;;14.97;;
71091;SDS011;58751;50.708;7.134;2022-12-13T08:55:35;24.90;;;15.07;;
71091;SDS011;58751;50.708;7.134;2022-12-13T08:58:02;31.57;;;16.07;;
71091;SDS011;58751;50.708;7.134;2022-12-13T09:00:28;23.75;;;15.90;;
71091;SDS011;58751;50.708;7.134;2022-12-13T09:02:56;22.53;;;15.50;;
71091;SDS011;58751;50.708;7.134;2022-12-13T09:05:21;27.20;;;15.90;;
71091;SDS011;58751;50.708;7.134;2022-12-13T09:07:47;25.27;;;15.70;;
71091;SDS011;58751;50.708;7.134;2022-12-13T09:10:14;27.57;;;15.40;;
71091;SDS011;58751;50.708;7.134;2022-12-13T09:12:40;25.80;;;14.63;;
71091;SDS011;58751;50.708;7.134;2022-12-13T09:15:06;30.50;;;16.80;;
71091;SDS011;58751;50.708;7.134;2022-12-13T09:17:31;29.53;;;15.63;;
71091;SDS011;58751;50.708;7.134;2022-12-13T09:19:58;26.30;;;16.20;;
71091;SDS011;58751;50.708;7.134;2022-12-13T09:22:24;28.65;;;15.07;;
71091;SDS011;58751;50.708;7.134;2022-12-13T09:24:49;28.33;;;16.30;;
71091;SDS011;58751;50.708;7.134;2022-12-13T09:27:14;18.93;;;11.63;;
71091;SDS011;58751;50.708;7.134;2022-12-13T09:29:39;22.47;;;15.60;;
71091;SDS011;58751;50.708;7.134;2022-12-13T09:32:05;26.80;;;13.87;;
71091;SDS011;58751;50.708;7.134;2022-12-13T09:34:30;26.00;;;14.20;;
71091;SDS011;58751;50.708;7.134;2022-12-13T09:36:58;15.97;;;11.90;;
71091;SDS011;58751;50.708;7.134;2022-12-13T09:39:23;28.95;;;15.43;;
71091;SDS011;58751;50.708;7.134;2022-12-13T09:41:49;21.77;;;11.77;;
71091;SDS011;58751;50.708;7.134;2022-12-13T09:44:21;24.17;;;13.68;;
71091;SDS011;58751;50.708;7.134;2022-12-13T09:46:48;25.77;;;13.88;;
71091;SDS011;58751;50.708;7.134;2022-12-13T09:49:15;22.63;;;13.27;;
71091;SDS011;58751;50.708;7.134;2022-12-13T09:51:41;23.70;;;13.82;;
71091;SDS011;58751;50.708;7.134;2022-12-13T09:54:10;18.70;;;12.13;;
71091;SDS011;58751;50.708;7.134;2022-12-13T09:56:40;21.98;;;13.27;;
71091;SDS011;58751;50.708;7.134;2022-12-13T09:59:10;20.90;;;12.70;;
71091;SDS011;58751;50.708;7.134;2022-12-13T10:01:36;25.35;;;13.60;;
71091;SDS011;58751;50.708;7.134;2022-12-13T10:04:01;27.50;;;13.43;;
71091;SDS011;58751;50.708;7.134;2022-12-13T10:06:27;17.83;;;12.50;;
71091;SDS011;58751;50.708;7.134;2022-12-13T10:08:53;23.23;;;13.18;;
71091;SDS011;58751;50.708;7.134;2022-12-13T10:11:20;23.58;;;12.63;;
71091;SDS011;58751;50.708;7.134;2022-12-13T10:13:47;22.42;;;13.02;;
71091;SDS011;58751;50.708;7.134;2022-12-13T10:16:17;18.67;;;12.30;;
71091;SDS011;58751;50.708;7.134;2022-12-13T10:18:43;19.08;;;12.20;;
71091;SDS011;58751;50.708;7.134;2022-12-13T10:21:09;25.70;;;13.07;;
71091;SDS011;58751;50.708;7.134;2022-12-13T10:23:35;27.75;;;14.13;;
71091;SDS011;58751;50.708;7.134;2022-12-13T10:26:00;23.40;;;12.90;;
71091;SDS011;58751;50.708;7.134;2022-12-13T10:28:27;28.00;;;14.77;;
71091;SDS011;58751;50.708;7.134;2022-12-13T10:30:53;21.77;;;12.10;;
71091;SDS011;58751;50.708;7.134;2022-12-13T10:33:20;19.58;;;11.40;;
71091;SDS011;58751;50.708;7.134;2022-12-13T10:35:46;23.08;;;12.65;;
71091;SDS011;58751;50.708;7.134;2022-12-13T10:38:25;21.23;;;12.77;;
71091;SDS011;58751;50.708;7.134;2022-12-13T10:40:51;24.55;;;13.25;;
71091;SDS011;58751;50.708;7.134;2022-12-13T10:43:17;20.47;;;13.47;;
71091;SDS011;58751;50.708;7.134;2022-12-13T10:45:55;21.77;;;13.00;;
71091;SDS011;58751;50.708;7.134;2022-12-13T10:48:21;19.38;;;12.45;;
71091;SDS011;58751;50.708;7.134;2022-12-13T10:50:57;19.63;;;11.95;;
71091;SDS011;58751;50.708;7.134;2022-12-13T10:53:24;21.13;;;12.30;;
71091;SDS011;58751;50.708;7.134;2022-12-13T10:55:52;19.27;;;11.55;;
71091;SDS011;58751;50.708;7.134;2022-12-13T10:58:19;21.75;;;13.20;;
71091;SDS011;58751;50.708;7.134;2022-12-13T11:00:45;19.73;;;10.97;;
71091;SDS011;58751;50.708;7.134;2022-12-13T11:03:12;17.20;;;10.40;;
71091;SDS011;58751;50.708;7.134;2022-12-13T11:05:49;16.10;;;11.30;;
71091;SDS011;58751;50.708;7.134;2022-12-13T11:08:25;22.63;;;13.30;;
71091;SDS011;58751;50.708;7.134;2022-12-13T11:10:55;20.35;;;11.57;;
71091;SDS011;58751;50.708;7.134;2022-12-13T11:13:22;17.70;;;11.20;;
71091;SDS011;58751;50.708;7.134;2022-12-13T11:15:50;19.02;;;11.43;;
71091;SDS011;58751;50.708;7.134;2022-12-13T11:18:18;18.20;;;10.50;;
71091;SDS011;58751;50.708;7.134;2022-12-13T11:20:46;18.75;;;11.13;;
71091;SDS011;58751;50.708;7.134;2022-12-13T11:23:19;18.67;;;10.00;;
71091;SDS011;58751;50.708;7.134;2022-12-13T11:25:46;14.20;;;10.70;;
71091;SDS011;58751;50.708;7.134;2022-12-13T11:28:18;15.47;;;10.07;;
71091;SDS011;58751;50.708;7.134;2022-12-13T11:30:49;18.65;;;10.80;;
71091;SDS011;58751;50.708;7.134;2022-12-13T11:33:20;15.90;;;10.23;;
71091;SDS011;58751;50.708;7.134;2022-12-13T11:35:53;16.90;;;10.57;;
71091;SDS011;58751;50.708;7.134;2022-12-13T11:38:25;19.90;;;10.70;;
71091;SDS011;58751;50.708;7.134;2022-12-13T11:40:54;20.95;;;10.85;;
71091;SDS011;58751;50.708;7.134;2022-12-13T11:43:24;20.50;;;10.30;;
71091;SDS011;58751;50.708;7.134;2022-12-13T11:45:51;16.83;;;10.85;;
71091;SDS011;58751;50.708;7.134;2022-12-13T11:48:17;13.50;;;8.70;;
71091;SDS011;58751;50.708;7.134;2022-12-13T11:50:43;18.65;;;10.75;;
71091;SDS011;58751;50.708;7.134;2022-12-13T11:53:19;20.88;;;11.95;;
71091;SDS011;58751;50.708;7.134;2022-12-13T11:55:47;18.45;;;9.93;;
71091;SDS011;58751;50.708;7.134;2022-12-13T11:58:17;10.88;;;8.45;;
71091;SDS011;58751;50.708;7.134;2022-12-13T12:00:46;17.45;;;10.45;;
71091;SDS011;58751;50.708;7.134;2022-12-13T12:03:14;19.02;;;11.05;;
71091;SDS011;58751;50.708;7.134;2022-12-13T12:05:41;20.48;;;9.57;;
71091;SDS011;58751;50.708;7.134;2022-12-13T12:08:11;16.98;;;10.63;;
71091;SDS011;58751;50.708;7.134;2022-12-13T12:10:39;13.93;;;9.48;;
71091;SDS011;58751;50.708;7.134;2022-12-13T12:13:09;15.20;;;8.88;;
71091;SDS011;58751;50.708;7.134;2022-12-13T12:15:39;19.65;;;11.80;;
71091;SDS011;58751;50.708;7.134;2022-12-13T12:18:08;18.25;;;10.13;;
71091;SDS011;58751;50.708;7.134;2022-12-13T12:20:39;18.75;;;10.82;;
71091;SDS011;58751;50.708;7.134;2022-12-13T12:23:10;17.70;;;11.48;;
71091;SDS011;58751;50.708;7.134;2022-12-13T12:25:40;14.30;;;10.25;;
71091;SDS011;58751;50.708;7.134;2022-12-13T12:28:08;14.52;;;10.95;;
71091;SDS011;58751;50.708;7.134;2022-12-13T12:30:40;15.80;;;9.80;;
71091;SDS011;58751;50.708;7.134;2022-12-13T12:33:09;18.88;;;10.55;;
71091;SDS011;58751;50.708;7.134;2022-12-13T12:38:25;18.02;;;10.50;;
71091;SDS011;58751;50.708;7.134;2022-12-13T12:40:58;15.50;;;10.05;;
71091;SDS011;58751;50.708;7.134;2022-12-13T12:43:30;18.48;;;10.40;;
71091;SDS011;58751;50.708;7.134;2022-12-13T12:45:58;20.45;;;11.43;;
71091;SDS011;58751;50.708;7.134;2022-12-13T12:48:34;12.93;;;9.90;;
71091;SDS011;58751;50.708;7.134;2022-12-13T12:51:05;16.90;;;10.90;;
71091;SDS011;58751;50.708;7.134;2022-12-13T12:53:35;21.92;;;10.02;;
71091;SDS011;58751;50.708;7.134;2022-12-13T12:56:15;18.48;;;11.52;;
71091;SDS011;58751;50.708;7.134;2022-12-13T12:58:45;12.23;;;9.10;;
71091;SDS011;58751;50.708;7.134;2022-12-13T13:01:14;21.90;;;11.15;;
71091;SDS011;58751;50.708;7.134;2022-12-13T13:03:41;16.98;;;9.20;;
71091;SDS011;58751;50.708;7.134;2022-12-13T13:06:08;22.03;;;11.10;;
71091;SDS011;58751;50.708;7.134;2022-12-13T13:08:37;15.98;;;10.90;;
71091;SDS011;58751;50.708;7.134;2022-12-13T13:11:05;16.08;;;10.45;;
71091;SDS011;58751;50.708;7.134;2022-12-13T13:13:34;15.87;;;10.10;;
71091;SDS011;58751;50.708;7.134;2022-12-13T13:16:01;17.38;;;10.48;;
71091;SDS011;58751;50.708;7.134;2022-12-13T13:18:43;16.75;;;10.27;;
71091;SDS011;58751;50.708;7.134;2022-12-13T13:23:50;18.08;;;9.82;;
71091;SDS011;58751;50.708;7.134;2022-12-13T13:26:28;15.43;;;9.95;;
71091;SDS011;58751;50.708;7.134;2022-12-13T13:28:54;13.20;;;8.93;;
71091;SDS011;58751;50.708;7.134;2022-12-13T13:31:54;15.02;;;9.02;;
71091;SDS011;58751;50.708;7.134;2022-12-13T13:34:20;19.73;;;9.77;;
71091;SDS011;58751;50.708;7.134;2022-12-13T13:36:46;17.88;;;10.43;;
71091;SDS011;58751;50.708;7.134;2022-12-13T13:39:13;16.83;;;10.27;;
71091;SDS011;58751;50.708;7.134;2022-12-13T13:41:55;18.73;;;9.75;;
71091;SDS011;58751;50.708;7.134;2022-12-13T13:44:31;17.63;;;10.35;;
71091;SDS011;58751;50.708;7.134;2022-12-13T13:49:42;16.33;;;9.73;;
71091;SDS011;58751;50.708;7.134;2022-12-13T13:52:16;15.80;;;9.85;;
71091;SDS011;58751;50.708;7.134;2022-12-13T13:54:57;14.02;;;9.77;;
71091;SDS011;58751;50.708;7.134;2022-12-13T13:57:38;18.65;;;10.48;;
71091;SDS011;58751;50.708;7.134;2022-12-13T14:00:10;17.77;;;9.25;;
71091;SDS011;58751;50.708;7.134;2022-12-13T14:08:24;17.38;;;10.05;;
71091;SDS011;58751;50.708;7.134;2022-12-13T14:10:56;17.30;;;9.43;;
71091;SDS011;58751;50.708;7.134;2022-12-13T14:13:41;19.35;;;11.25;;
71091;SDS011;58751;50.708;7.134;2022-12-13T14:21:50;21.50;;;11.65;;
71091;SDS011;58751;50.708;7.134;2022-12-13T14:24:21;13.48;;;8.02;;
71091;SDS011;58751;50.708;7.134;2022-12-13T14:26:53;21.70;;;9.82;;
71091;SDS011;58751;50.708;7.134;2022-12-13T14:29:22;19.02;;;10.48;;
71091;SDS011;58751;50.708;7.134;2022-12-13T14:31:48;18.02;;;10.32;;
71091;SDS011;58751;50.708;7.134;2022-12-13T14:34:16;18.97;;;10.10;;
71091;SDS011;58751;50.708;7.134;2022-12-13T14:36:43;16.23;;;9.75;;
71091;SDS011;58751;50.708;7.134;2022-12-13T14:39:12;9.57;;;6.93;;
71091;SDS011;58751;50.708;7.134;2022-12-13T14:41:45;12.77;;;8.98;;
71091;SDS011;58751;50.708;7.134;2022-12-13T14:44:13;15.77;;;9.43;;